Time;durP1;ratioP1;P1;durP2;ratioP2;P2;SDS_P1;SDS_P2;PMS_P1;PMS_P2;Temp;Humidity;BMP_temperature;BMP_pressure;BME280_temperature;BME280_humidity;BME280_pressure;Samples;Min_cycle;Max_cycle;Signal;HPM_P1;HPM_P2
2022/08/25 00:01:26;;;;;;;12.90;3.28;;;;;;;23.72;38.96;101744.31;4996307;28;20022;-78
2022/08/25 00:03:52;;;;;;;10.57;2.72;;;;;;;23.67;38.96;101742.69;4996521;28;20035;-77
2022/08/25 00:06:18;;;;;;;10.80;2.92;;;;;;;23.75;38.82;101733.22;4996062;28;20026;-78
2022/08/25 00:08:44;;;;;;;15.38;2.85;;;;;;;23.64;38.94;101743.44;4996277;28;20022;-77
2022/08/25 00:11:20;;;;;;;8.02;2.78;;;;;;;23.70;39.02;101733.53;4995134;28;20514;-79
2022/08/25 00:13:49;;;;;;;13.75;4.05;;;;;;;23.70;39.15;101739.13;4995897;28;20042;-77
2022/08/25 00:16:17;;;;;;;8.68;3.17;;;;;;;23.62;38.92;101734.63;4995927;28;20030;-78
2022/08/25 00:18:47;;;;;;;7.78;2.75;;;;;;;23.59;39.19;101737.38;4996109;28;20026;-77
2022/08/25 00:21:14;;;;;;;8.23;3.42;;;;;;;23.58;39.42;101744.09;4996005;28;20026;-78
2022/08/25 00:23:40;;;;;;;14.52;3.72;;;;;;;23.57;38.88;101742.50;4995921;28;20062;-78
2022/08/25 00:26:06;;;;;;;10.70;3.05;;;;;;;23.56;39.29;101738.09;4995696;28;20520;-78
2022/08/25 00:28:32;;;;;;;8.60;2.60;;;;;;;23.53;39.39;101742.47;4995500;28;20053;-77
2022/08/25 00:31:00;;;;;;;10.18;3.50;;;;;;;23.47;39.19;101739.19;4995949;28;20054;-78
2022/08/25 00:33:26;;;;;;;12.68;3.20;;;;;;;23.42;39.24;101744.28;4995898;28;20117;-77
2022/08/25 00:35:52;;;;;;;14.50;3.20;;;;;;;23.41;39.46;101740.69;4995554;28;20023;-77
2022/08/25 00:38:18;;;;;;;10.77;3.25;;;;;;;23.40;39.32;101741.06;4995807;28;20470;-78
2022/08/25 00:40:44;;;;;;;9.90;3.28;;;;;;;23.37;39.26;101742.63;4995692;28;20053;-77
2022/08/25 00:43:10;;;;;;;11.30;2.47;;;;;;;23.35;39.49;101736.63;4995700;28;20026;-77
2022/08/25 00:45:36;;;;;;;16.00;3.38;;;;;;;23.36;39.43;101743.81;4995342;28;20019;-78
2022/08/25 00:48:03;;;;;;;9.15;3.00;;;;;;;23.36;39.62;101745.81;4995599;28;20026;-77
2022/08/25 00:50:30;;;;;;;8.32;2.72;;;;;;;23.27;39.55;101751.63;4995526;28;20543;-78
2022/08/25 00:53:00;;;;;;;10.60;3.40;;;;;;;23.22;39.45;101738.84;4995397;28;20092;-79
2022/08/25 00:55:29;;;;;;;9.00;3.00;;;;;;;23.17;39.54;101744.72;4994607;28;20027;-81
2022/08/25 00:58:12;;;;;;;11.10;3.53;;;;;;;23.02;40.17;101747.66;4995370;28;20026;-83
2022/08/25 01:00:43;;;;;;;8.07;3.10;;;;;;;23.00;39.89;101748.03;4994148;28;20436;-79
2022/08/25 01:03:09;;;;;;;12.45;3.35;;;;;;;23.04;39.60;101750.88;4994105;28;20120;-78
2022/08/25 01:05:35;;;;;;;9.63;2.60;;;;;;;23.05;39.57;101744.94;4994981;28;20105;-78
2022/08/25 01:08:02;;;;;;;14.77;3.25;;;;;;;22.95;39.85;101748.34;4995277;28;20684;-78
2022/08/25 01:10:29;;;;;;;8.68;3.03;;;;;;;22.93;39.93;101745.13;4995191;28;20496;-77
2022/08/25 01:13:00;;;;;;;13.02;3.65;;;;;;;22.88;39.87;101751.81;4994941;28;20046;-77
2022/08/25 01:15:26;;;;;;;16.08;4.43;;;;;;;22.88;39.95;101748.22;4994850;28;20054;-78
2022/08/25 01:17:56;;;;;;;13.90;3.75;;;;;;;22.88;40.11;101748.22;4995072;28;20034;-78
2022/08/25 01:20:25;;;;;;;15.13;4.05;;;;;;;22.80;40.34;101755.63;4994954;28;20030;-78
2022/08/25 01:22:51;;;;;;;11.10;3.33;;;;;;;22.83;40.34;101760.47;4995028;28;20035;-78
2022/08/25 01:25:38;;;;;;;12.13;3.35;;;;;;;22.81;40.54;101757.25;4994497;28;20042;-79
2022/08/25 01:28:04;;;;;;;11.70;2.95;;;;;;;22.78;40.53;101757.19;4994806;28;20053;-78
2022/08/25 01:30:31;;;;;;;10.00;3.50;;;;;;;22.73;40.53;101754.69;4994799;28;20092;-77
2022/08/25 01:32:57;;;;;;;16.20;3.90;;;;;;;22.72;40.72;101756.69;4994684;28;20492;-78
2022/08/25 01:35:23;;;;;;;13.27;3.28;;;;;;;22.73;40.91;101757.50;4993311;28;20035;-78
2022/08/25 01:37:49;;;;;;;13.18;3.58;;;;;;;22.70;40.73;101772.97;4994726;28;20031;-78
2022/08/25 01:40:15;;;;;;;14.63;3.20;;;;;;;22.74;40.85;101761.88;4994604;28;20102;-79
2022/08/25 01:42:58;;;;;;;12.88;3.17;;;;;;;22.62;41.18;101766.47;4994552;28;20393;-77
2022/08/25 01:45:24;;;;;;;16.83;3.78;;;;;;;22.60;41.16;101763.25;4993978;28;20841;-78
2022/08/25 01:47:50;;;;;;;15.18;3.60;;;;;;;22.54;41.32;101761.94;4994244;28;20042;-77
2022/08/25 01:50:16;;;;;;;15.10;3.40;;;;;;;22.52;41.40;101766.25;4994451;28;20417;-78
2022/08/25 01:53:06;;;;;;;12.63;3.22;;;;;;;22.54;41.53;101763.94;4994388;28;20027;-78
2022/08/25 01:55:50;;;;;;;21.38;3.40;;;;;;;22.54;41.03;101764.72;4994104;28;20038;-78
2022/08/25 01:58:29;;;;;;;12.05;4.00;;;;;;;22.55;41.35;101768.31;4993356;28;20034;-78
2022/08/25 02:01:01;;;;;;;10.52;3.53;;;;;;;22.58;41.11;101771.16;4989056;28;20445;-78
2022/08/25 02:03:28;;;;;;;11.52;3.22;;;;;;;22.59;41.10;101767.19;4974800;28;20066;-78
2022/08/25 02:05:55;;;;;;;11.77;2.67;;;;;;;22.51;41.21;101768.25;4981276;28;20030;-77
2022/08/25 02:08:22;;;;;;;12.95;3.20;;;;;;;22.47;41.37;101764.59;4993033;28;20030;-78
2022/08/25 02:10:48;;;;;;;12.05;3.53;;;;;;;22.44;41.51;101770.88;4994247;28;20493;-78
2022/08/25 02:13:15;;;;;;;15.10;3.55;;;;;;;22.39;41.66;101769.22;4993697;28;20053;-77
2022/08/25 02:15:43;;;;;;;13.45;3.45;;;;;;;22.39;41.79;101774.00;4993713;28;20026;-78
2022/08/25 02:18:10;;;;;;;13.18;3.60;;;;;;;22.32;42.11;101779.44;4993974;28;20429;-79
2022/08/25 02:20:36;;;;;;;14.73;3.45;;;;;;;22.39;41.77;101772.00;4993976;28;20041;-78
2022/08/25 02:23:01;;;;;;;6.05;2.63;;;;;;;22.43;41.80;101772.06;4993804;28;20084;-77
2022/08/25 02:25:27;;;;;;;13.48;3.30;;;;;;;22.45;41.63;101775.31;4992879;28;20517;-76
2022/08/25 02:27:53;;;;;;;13.90;3.30;;;;;;;22.43;41.48;101777.63;4993721;28;20062;-76
2022/08/25 02:30:20;;;;;;;10.57;3.03;;;;;;;22.46;41.82;101776.13;4993708;28;20026;-77
2022/08/25 02:32:45;;;;;;;16.45;3.50;;;;;;;22.45;41.58;101771.72;4993714;28;20482;-76
2022/08/25 02:35:12;;;;;;;9.57;3.15;;;;;;;22.41;41.43;101777.22;4993263;28;20041;-76
2022/08/25 02:37:37;;;;;;;13.55;3.63;;;;;;;22.32;41.64;101771.06;4974240;28;20430;-79
2022/08/25 02:40:04;;;;;;;11.05;2.97;;;;;;;22.29;41.67;101774.56;4974204;28;20106;-76
2022/08/25 02:42:29;;;;;;;15.02;3.17;;;;;;;22.27;41.64;101779.72;4974122;28;20402;-76
2022/08/25 02:44:55;;;;;;;7.85;2.75;;;;;;;22.23;41.43;101782.44;4984879;28;20034;-76
2022/08/25 02:47:22;;;;;;;13.35;3.53;;;;;;;22.19;41.73;101789.09;4992916;28;20030;-75
2022/08/25 02:49:47;;;;;;;10.95;3.08;;;;;;;22.13;41.71;101786.59;4993459;28;20481;-76
2022/08/25 02:52:14;;;;;;;11.40;2.83;;;;;;;22.12;41.58;101786.97;4993406;28;20039;-76
2022/08/25 02:54:40;;;;;;;10.15;3.33;;;;;;;22.14;41.72;101784.63;4993358;28;20038;-76
2022/08/25 02:57:06;;;;;;;13.45;3.35;;;;;;;22.10;41.57;101781.78;4992748;28;20126;-76
2022/08/25 02:59:31;;;;;;;9.93;2.80;;;;;;;22.10;41.65;101795.69;4993343;28;20109;-76
2022/08/25 03:01:57;;;;;;;14.70;2.92;;;;;;;22.16;41.65;101787.88;4993340;28;20030;-76
2022/08/25 03:04:23;;;;;;;12.05;3.70;;;;;;;22.16;41.63;101790.66;4992960;28;20049;-76
2022/08/25 03:06:48;;;;;;;12.65;3.05;;;;;;;22.15;41.57;101791.81;4993005;28;20041;-75
2022/08/25 03:09:15;;;;;;;11.18;3.58;;;;;;;21.96;42.04;101792.59;4992018;28;20065;-81
2022/08/25 03:11:40;;;;;;;11.70;3.22;;;;;;;21.80;42.51;101789.88;4993180;28;20022;-76
2022/08/25 03:14:08;;;;;;;12.85;3.60;;;;;;;21.88;42.31;101797.19;4992986;28;20062;-76
2022/08/25 03:16:34;;;;;;;12.77;3.28;;;;;;;21.94;42.34;101789.38;4992771;28;20030;-76
2022/08/25 03:19:00;;;;;;;16.20;3.35;;;;;;;21.86;42.31;101804.31;4997768;28;20038;-75
2022/08/25 03:21:27;;;;;;;18.05;3.28;;;;;;;21.88;42.61;101804.72;4999578;28;20039;-76
2022/08/25 03:23:53;;;;;;;13.45;3.53;;;;;;;21.89;42.44;101789.66;4998157;28;20030;-76
2022/08/25 03:29:04;;;;;;;14.15;3.40;;;;;;;21.87;42.71;101792.78;4999578;28;20065;-76
2022/08/25 03:31:31;;;;;;;16.67;3.58;;;;;;;21.84;43.10;101787.97;4999603;28;20033;-77
2022/08/25 03:33:57;;;;;;;14.70;4.53;;;;;;;21.73;43.60;101792.47;4999379;28;20033;-75
2022/08/25 03:36:24;;;;;;;18.65;4.25;;;;;;;21.69;43.69;101791.63;4999285;28;20034;-76
2022/08/25 03:38:51;;;;;;;16.20;4.15;;;;;;;21.74;43.82;101791.31;4999037;28;20386;-76
2022/08/25 03:41:31;;;;;;;14.63;4.05;;;;;;;21.74;44.12;101793.28;4999206;28;20077;-75
2022/08/25 03:43:58;;;;;;;16.02;3.95;;;;;;;21.55;44.38;101794.88;4999480;28;20030;-75
2022/08/25 03:46:28;;;;;;;12.18;3.47;;;;;;;21.75;43.91;101792.91;4999256;28;20061;-76
2022/08/25 03:48:54;;;;;;;;;;;;;;;21.76;44.18;101786.19;4999743;28;20502;-76
2022/08/25 03:51:45;;;;;;;14.20;4.18;;;;;;;21.72;44.27;101790.06;4999355;28;19918;-76
2022/08/25 03:54:12;;;;;;;16.20;4.85;;;;;;;21.72;44.03;101787.28;4996616;28;20049;-76
2022/08/25 03:56:38;;;;;;;11.02;3.58;;;;;;;21.66;44.35;101791.53;4999109;28;20041;-76
2022/08/25 03:59:04;;;;;;;11.07;3.67;;;;;;;21.66;44.38;101786.75;4999248;28;20081;-76
2022/08/25 04:01:30;;;;;;;16.67;3.65;;;;;;;21.76;44.20;101788.16;4999250;28;20026;-75
2022/08/25 04:03:56;;;;;;;10.35;3.70;;;;;;;21.76;44.23;101786.19;4999225;28;20034;-75
2022/08/25 04:06:22;;;;;;;15.23;4.45;;;;;;;21.78;44.08;101783.06;4998886;28;20477;-76
2022/08/25 04:08:48;;;;;;;15.70;3.67;;;;;;;21.72;44.35;101779.75;4999351;28;20030;-75
2022/08/25 04:11:16;;;;;;;18.85;3.63;;;;;;;21.54;44.91;101787.72;4999126;28;20085;-76
2022/08/25 04:13:45;;;;;;;14.32;3.40;;;;;;;21.53;44.89;101788.84;4998845;28;20093;-76
2022/08/25 04:16:17;;;;;;;13.60;3.40;;;;;;;21.53;44.89;101782.47;4998834;28;20084;-76
2022/08/25 04:18:44;;;;;;;15.02;3.83;;;;;;;21.49;45.17;101782.41;4999186;28;20026;-76
2022/08/25 04:21:11;;;;;;;13.15;4.38;;;;;;;21.50;45.19;101780.44;4999146;28;20110;-76
2022/08/25 04:23:41;;;;;;;10.95;3.30;;;;;;;21.50;45.42;101786.81;4999018;28;20563;-75
2022/08/25 04:26:18;;;;;;;15.40;3.47;;;;;;;21.44;45.82;101788.25;4998584;28;20053;-76
2022/08/25 04:28:45;;;;;;;14.38;3.92;;;;;;;21.35;46.06;101790.41;4999046;28;20473;-75
2022/08/25 04:31:16;;;;;;;11.52;4.63;;;;;;;21.36;46.03;101788.44;4994987;28;20026;-76
2022/08/25 04:33:42;;;;;;;11.13;3.60;;;;;;;21.16;46.41;101780.03;4995660;28;20176;-76
2022/08/25 04:36:13;;;;;;;17.05;4.07;;;;;;;20.85;47.43;101780.00;4995827;28;20083;-75
2022/08/25 04:38:40;;;;;;;10.93;3.38;;;;;;;20.73;47.76;101780.91;4995879;28;20105;-78
2022/08/25 04:41:07;;;;;;;14.82;4.03;;;;;;;20.72;47.86;101773.75;4995682;28;20023;-76
2022/08/25 04:43:34;;;;;;;16.63;4.15;;;;;;;20.70;47.96;101774.09;4995656;28;20030;-75
2022/08/25 04:46:05;;;;;;;15.88;3.55;;;;;;;20.52;48.33;101783.94;4995528;28;20038;-77
2022/08/25 04:48:31;;;;;;;14.20;3.65;;;;;;;20.43;48.61;101783.25;4995772;28;20030;-76
2022/08/25 04:50:57;;;;;;;13.68;3.20;;;;;;;20.39;48.56;101780.38;4995630;28;20018;-76
2022/08/25 04:53:23;;;;;;;15.80;3.75;;;;;;;20.44;48.40;101774.59;4995504;28;20029;-76
2022/08/25 04:55:48;;;;;;;15.30;3.60;;;;;;;20.35;48.64;101779.47;4995328;28;20034;-75
2022/08/25 04:58:15;;;;;;;13.30;3.70;;;;;;;20.29;48.89;101775.34;4995467;28;20031;-76
2022/08/25 05:00:42;;;;;;;10.38;3.38;;;;;;;20.41;48.39;101780.03;4995497;28;20041;-77
2022/08/25 05:03:08;;;;;;;11.68;3.45;;;;;;;20.30;48.69;101779.72;4995439;28;20026;-76
2022/08/25 05:05:37;;;;;;;10.95;4.32;;;;;;;20.26;48.78;101781.59;4993885;28;20034;-76
2022/08/25 05:08:05;;;;;;;9.55;4.00;;;;;;;20.27;48.62;101772.13;4995306;28;20037;-76
2022/08/25 05:10:31;;;;;;;15.57;3.85;;;;;;;20.34;48.52;101775.09;4995228;28;20031;-77
2022/08/25 05:12:57;;;;;;;17.35;3.45;;;;;;;20.03;49.51;101783.31;4994958;28;20054;-78
2022/08/25 05:18:08;;;;;;;16.73;4.68;;;;;;;20.17;49.00;101767.06;4975760;28;20584;-76
2022/08/25 05:20:36;;;;;;;20.98;4.05;;;;;;;20.23;48.73;101777.56;4975744;28;20046;-83
2022/08/25 05:23:03;;;;;;;17.95;4.18;;;;;;;20.23;48.74;101773.97;4987615;28;20491;-76
2022/08/25 05:25:28;;;;;;;15.55;4.28;;;;;;;20.28;48.50;101778.47;4994652;28;20027;-76
2022/08/25 05:27:54;;;;;;;12.57;3.83;;;;;;;20.29;48.43;101777.31;4994633;28;20113;-76
2022/08/25 05:30:20;;;;;;;19.52;4.65;;;;;;;20.27;48.44;101772.13;4994861;28;20029;-76
2022/08/25 05:32:45;;;;;;;18.23;4.10;;;;;;;20.10;48.99;101777.94;4994939;28;20081;-76
2022/08/25 05:35:11;;;;;;;10.13;3.33;;;;;;;20.22;48.36;101775.94;4993965;28;20085;-82
2022/08/25 05:37:37;;;;;;;14.95;3.90;;;;;;;20.26;48.38;101780.81;4993841;28;20022;-76
2022/08/25 05:40:05;;;;;;;13.85;3.47;;;;;;;20.27;48.38;101790.75;4994672;28;20362;-84
2022/08/25 05:42:31;;;;;;;9.25;3.92;;;;;;;20.25;48.36;101779.97;4994619;28;20511;-76
2022/08/25 05:44:56;;;;;;;12.13;4.15;;;;;;;20.23;48.42;101787.84;4994703;28;20061;-82
2022/08/25 05:47:22;;;;;;;12.15;3.80;;;;;;;20.20;48.54;101788.56;4994274;28;20026;-77
2022/08/25 05:49:48;;;;;;;13.45;4.00;;;;;;;20.14;48.90;101787.19;4993372;28;20041;-75
2022/08/25 05:52:14;;;;;;;20.20;4.35;;;;;;;20.26;48.54;101786.34;4994633;28;20532;-75
2022/08/25 05:54:40;;;;;;;14.32;3.70;;;;;;;20.36;48.30;101783.06;4993108;28;20397;-76
2022/08/25 05:57:06;;;;;;;16.55;3.75;;;;;;;20.38;48.54;101784.31;4993835;28;20031;-77
2022/08/25 05:59:32;;;;;;;14.32;3.83;;;;;;;20.26;48.79;101786.34;4994431;28;20034;-75
2022/08/25 06:04:42;;;;;;;17.33;4.68;;;;;;;20.50;48.16;101777.94;4994346;28;20098;-76
2022/08/25 06:07:09;;;;;;;15.50;4.50;;;;;;;20.50;48.43;101777.94;4993921;28;20566;-75
2022/08/25 06:09:40;;;;;;;21.52;4.63;;;;;;;20.54;48.59;101781.59;4994164;28;20073;-76
2022/08/25 06:12:06;;;;;;;21.48;4.03;;;;;;;20.56;48.32;101775.72;4994143;28;20018;-76
2022/08/25 06:14:32;;;;;;;18.23;4.20;;;;;;;20.68;48.24;101770.88;4993928;28;20058;-76
2022/08/25 06:16:59;;;;;;;12.38;3.85;;;;;;;20.69;48.30;101775.25;4993861;28;20069;-75
2022/08/25 06:19:25;;;;;;;14.90;3.75;;;;;;;20.84;47.90;101770.88;4993978;28;20029;-76
2022/08/25 06:21:56;;;;;;;10.98;3.58;;;;;;;20.94;47.95;101781.47;4993996;28;20026;-76
2022/08/25 06:24:24;;;;;;;12.88;3.70;;;;;;;21.02;47.92;101777.69;4992699;28;20029;-75
2022/08/25 06:26:50;;;;;;;19.20;5.05;;;;;;;20.98;48.36;101774.00;4993730;28;20088;-76
2022/08/25 06:29:16;;;;;;;13.05;3.50;;;;;;;21.14;47.81;101785.13;5004004;28;20109;-78
2022/08/25 06:31:42;;;;;;;12.00;3.67;;;;;;;21.22;48.04;101788.88;4993687;28;20026;-76
2022/08/25 06:34:08;;;;;;;16.38;3.67;;;;;;;21.34;47.89;101802.72;4995704;28;20026;-77
2022/08/25 06:36:33;;;;;;;12.45;3.95;;;;;;;21.46;48.07;101793.44;5011466;28;20112;-79
2022/08/25 06:38:59;;;;;;;14.68;4.22;;;;;;;21.50;48.05;101800.72;4994157;28;20030;-77
2022/08/25 06:41:25;;;;;;;14.43;5.40;;;;;;;21.59;48.12;101804.09;4993889;28;20026;-77
2022/08/25 06:43:51;;;;;;;12.45;3.55;;;;;;;21.55;48.72;101802.41;4993534;28;20080;-78
2022/08/25 06:46:20;;;;;;;9.48;3.53;;;;;;;21.68;48.55;101801.09;4993147;28;20025;-78
2022/08/25 06:48:46;;;;;;;10.17;4.43;;;;;;;21.91;47.68;101805.97;4993410;28;20386;-78
2022/08/25 06:51:14;;;;;;;16.95;5.20;;;;;;;22.07;47.67;101801.97;4993364;28;20314;-78
2022/08/25 06:53:42;;;;;;;16.30;3.92;;;;;;;21.92;48.12;101797.28;4991657;28;20155;-77
2022/08/25 06:56:08;;;;;;;13.73;4.55;;;;;;;22.03;47.96;101811.41;4993308;28;20062;-78
2022/08/25 06:58:34;;;;;;;22.25;5.95;;;;;;;22.11;47.90;101811.22;4993423;28;20105;-77
2022/08/25 07:01:14;;;;;;;10.43;4.35;;;;;;;21.93;48.66;101807.25;4993444;28;20036;-77
2022/08/25 07:03:41;;;;;;;;;;;;;;;22.01;48.22;101808.19;4993876;28;20034;-77
2022/08/25 07:06:07;;;;;;;10.70;4.72;;;;;;;22.28;47.56;101811.94;4993196;28;19984;-78
2022/08/25 07:08:34;;;;;;;11.10;3.88;;;;;;;22.38;47.10;101816.94;4993178;28;20104;-78
2022/08/25 07:11:08;;;;;;;21.85;4.88;;;;;;;22.26;47.47;101812.31;5008423;28;20481;-78
2022/08/25 07:13:35;;;;;;;11.25;3.33;;;;;;;22.32;47.06;101821.19;4992927;28;20192;-76
2022/08/25 07:16:01;;;;;;;11.85;3.90;;;;;;;22.32;46.85;101821.19;4991728;28;20034;-79
2022/08/25 07:18:28;;;;;;;11.27;3.53;;;;;;;22.22;46.91;101827.31;4992673;28;20041;-77
2022/08/25 07:20:55;;;;;;;10.27;3.15;;;;;;;22.29;46.74;101825.53;4993115;28;20026;-78
2022/08/25 07:23:22;;;;;;;12.32;3.20;;;;;;;22.31;46.88;101825.16;4993120;28;20031;-77
2022/08/25 07:25:48;;;;;;;19.17;3.72;;;;;;;22.19;47.09;101825.28;4993247;28;20030;-80
2022/08/25 07:28:15;;;;;;;12.30;3.38;;;;;;;22.39;46.76;101829.69;4989369;28;20054;-80
2022/08/25 07:30:41;;;;;;;10.02;3.03;;;;;;;22.44;46.69;101826.59;4993462;28;20097;-79
2022/08/25 07:33:06;;;;;;;9.88;3.40;;;;;;;22.36;46.85;101830.41;4993031;28;20113;-85
2022/08/25 07:35:32;;;;;;;10.43;3.50;;;;;;;22.45;46.71;101830.22;4993196;28;20089;-81
2022/08/25 07:37:59;;;;;;;9.43;2.78;;;;;;;22.39;47.07;101835.25;4992427;28;20112;-78
2022/08/25 07:40:31;;;;;;;20.63;8.60;;;;;;;22.45;46.87;101844.94;4990800;28;20030;-81
2022/08/25 07:43:00;;;;;;;8.73;3.10;;;;;;;22.49;46.75;101840.22;4992038;28;20042;-79
2022/08/25 07:45:29;;;;;;;6.00;2.35;;;;;;;22.43;46.99;101845.28;4992352;28;20488;-80
2022/08/25 07:47:59;;;;;;;13.63;3.90;;;;;;;22.45;46.81;101841.34;4992875;28;20419;-79
2022/08/25 07:50:27;;;;;;;8.70;2.97;;;;;;;22.52;46.73;101855.38;4991972;28;20026;-78
2022/08/25 07:52:52;;;;;;;9.45;3.72;;;;;;;22.70;46.38;101857.34;4993244;28;20030;-79
2022/08/25 07:55:19;;;;;;;9.48;3.35;;;;;;;22.59;46.66;101861.09;4990626;28;20026;-77
2022/08/25 07:57:45;;;;;;;12.82;3.28;;;;;;;22.77;46.35;101861.44;4990895;28;20100;-78
2022/08/25 08:00:13;;;;;;;11.80;3.90;;;;;;;22.84;46.25;101858.81;4991511;28;20034;-81
2022/08/25 08:02:40;;;;;;;10.98;3.50;;;;;;;22.87;45.85;101858.88;4989868;28;20397;-78
2022/08/25 08:05:07;;;;;;;14.27;4.13;;;;;;;23.02;45.75;101859.16;5001768;28;20530;-77
2022/08/25 08:07:34;;;;;;;10.02;3.45;;;;;;;22.71;46.56;101874.88;5002466;28;20084;-79
2022/08/25 08:10:00;;;;;;;11.38;3.15;;;;;;;22.93;45.80;101870.53;5002085;28;20121;-79
2022/08/25 08:12:26;;;;;;;8.20;2.95;;;;;;;23.05;45.37;101877.91;5011446;28;20046;-79
2022/08/25 08:14:52;;;;;;;6.38;2.33;;;;;;;22.91;46.10;101884.06;4999003;28;20548;-84
2022/08/25 08:17:19;;;;;;;7.13;2.47;;;;;;;23.25;45.16;101885.84;5003771;28;20682;-82
2022/08/25 08:19:45;;;;;;;8.50;2.92;;;;;;;23.14;45.64;101886.84;5002937;28;20022;-78
2022/08/25 08:22:14;;;;;;;7.55;3.03;;;;;;;23.31;45.26;101891.13;5015082;28;20049;-78
2022/08/25 08:24:43;;;;;;;6.53;2.20;;;;;;;22.93;46.09;101885.28;5008184;28;20033;-84
2022/08/25 08:27:09;;;;;;;10.98;2.60;;;;;;;23.34;45.19;101882.00;5006391;28;20092;-90
2022/08/25 08:29:36;;;;;;;10.75;2.50;;;;;;;23.34;44.95;101887.56;5004050;28;20068;-82
2022/08/25 08:32:03;;;;;;;8.82;2.38;;;;;;;23.67;44.71;101884.97;4996795;28;20028;-79
2022/08/25 08:34:29;;;;;;;13.20;3.45;;;;;;;23.64;44.85;101882.91;5005236;28;20031;-90
2022/08/25 08:36:55;;;;;;;9.15;2.58;;;;;;;23.82;44.53;101885.19;5002336;28;20389;-78
2022/08/25 08:39:21;;;;;;;27.35;4.25;;;;;;;23.97;43.98;101889.81;5011094;28;20030;-81
2022/08/25 08:42:18;;;;;;;10.38;3.00;;;;;;;24.11;43.65;101895.59;5004608;28;20093;-89
2022/08/25 08:44:44;;;;;;;13.13;3.50;;;;;;;24.26;43.30;101900.19;5006612;28;20060;-77
2022/08/25 08:47:18;;;;;;;9.88;3.03;;;;;;;24.44;43.14;101894.84;5009043;28;20049;-79
2022/08/25 08:50:21;;;;;;;23.75;4.63;;;;;;;24.38;42.56;101899.16;5018198;28;20028;-79
2022/08/25 08:52:54;;;;;;;7.38;3.15;;;;;;;24.57;42.10;101899.00;5016724;28;20029;-78
2022/08/25 08:55:27;;;;;;;10.13;2.70;;;;;;;24.71;41.88;101894.75;5013850;28;20034;-79
2022/08/25 08:57:57;;;;;;;14.20;2.78;;;;;;;24.78;41.30;101890.03;5030777;28;20030;-94
2022/08/25 09:00:22;;;;;;;;;;;;;;;24.75;41.05;101890.03;5017608;28;20030;-78
2022/08/25 09:03:01;;;;;;;7.50;2.03;;;;;;;25.00;40.74;101891.06;5017427;28;20011;-86
2022/08/25 09:05:29;;;;;;;9.95;2.40;;;;;;;25.08;40.29;101889.97;5014518;28;20104;-80
2022/08/25 09:08:11;;;;;;;7.45;2.92;;;;;;;25.12;39.81;101890.84;5014857;28;20424;-78
2022/08/25 09:10:52;;;;;;;32.17;4.97;;;;;;;25.18;38.90;101889.31;5015028;28;20036;-79
2022/08/25 09:13:35;;;;;;;8.40;2.42;;;;;;;25.45;38.53;101878.72;5010560;28;20050;-91
2022/08/25 09:19:39;;;;;;;7.68;2.13;;;;;;;25.71;38.41;101874.13;5012619;28;20036;-80
2022/08/25 09:22:16;;;;;;;;;;;;;;;25.61;37.67;101880.44;5012445;28;20103;-84
2022/08/25 09:24:51;;;;;;;6.28;1.70;;;;;;;25.87;38.16;101874.66;5016561;28;19913;-93
2022/08/25 09:27:25;;;;;;;8.02;1.92;;;;;;;25.79;37.95;101878.63;5028533;28;20033;-81
2022/08/25 09:30:00;;;;;;;6.35;1.73;;;;;;;25.98;37.17;101877.50;5003675;28;20095;-80
2022/08/25 09:32:34;;;;;;;7.70;1.85;;;;;;;25.98;37.52;101872.72;5009924;28;20029;-83
2022/08/25 09:35:02;;;;;;;7.93;2.10;;;;;;;26.00;36.23;101875.94;5010502;28;20034;-91
2022/08/25 09:37:27;;;;;;;5.28;1.52;;;;;;;26.10;36.00;101879.19;5008792;28;20033;-79
2022/08/25 09:39:53;;;;;;;9.00;2.20;;;;;;;26.24;35.76;101882.06;4997401;28;20023;-82
2022/08/25 09:42:19;;;;;;;8.43;2.40;;;;;;;26.26;35.62;101883.25;4998421;28;20219;-81
2022/08/25 09:44:47;;;;;;;7.32;1.77;;;;;;;26.40;35.21;101874.16;5009205;28;20046;-75
2022/08/25 09:47:26;;;;;;;3.85;1.90;;;;;;;26.41;34.49;101877.75;5012970;28;20030;-75
2022/08/25 09:50:00;;;;;;;16.50;3.35;;;;;;;26.21;33.67;101880.81;5012594;28;20092;-91
2022/08/25 09:52:35;;;;;;;6.15;1.98;;;;;;;26.53;33.91;101880.22;5002061;28;20022;-77
2022/08/25 09:55:12;;;;;;;8.55;2.10;;;;;;;26.21;34.30;101877.22;5006322;28;20041;-75
2022/08/25 09:57:47;;;;;;;11.05;3.72;;;;;;;26.73;33.37;101872.25;5002322;28;20508;-73
2022/08/25 10:00:15;;;;;;;6.78;1.75;;;;;;;26.84;33.07;101875.88;5004912;28;20026;-74
2022/08/25 10:02:43;;;;;;;10.07;2.30;;;;;;;26.64;33.23;101869.81;5006860;28;20120;-81
2022/08/25 10:05:24;;;;;;;9.52;3.30;;;;;;;26.70;32.70;101871.03;5004384;28;20041;-76
2022/08/25 10:08:03;;;;;;;8.95;2.90;;;;;;;26.65;33.12;101871.44;5001045;28;20048;-74
2022/08/25 10:10:33;;;;;;;5.80;1.92;;;;;;;26.70;32.93;101864.63;5001483;28;20022;-79
2022/08/25 10:13:02;;;;;;;7.03;1.75;;;;;;;26.67;33.06;101869.03;5004400;28;20045;-81
2022/08/25 10:15:36;;;;;;;20.45;16.83;;;;;;;26.58;32.00;101859.38;4997424;28;20037;-84
2022/08/25 10:18:25;;;;;;;11.80;3.97;;;;;;;27.00;32.32;101865.09;5003059;28;20030;-76
2022/08/25 10:21:02;;;;;;;13.90;7.67;;;;;;;26.83;32.43;101858.25;5003194;28;20128;-95
2022/08/25 10:23:29;;;;;;;8.45;2.83;;;;;;;27.05;32.25;101859.13;5000956;28;20102;-87
2022/08/25 10:26:01;;;;;;;7.15;3.60;;;;;;;27.20;31.83;101851.50;5022496;28;20076;-90
2022/08/25 10:28:53;;;;;;;26.00;5.47;;;;;;;27.35;30.98;101853.09;5000616;28;20091;-75
2022/08/25 10:31:23;;;;;;;7.78;1.30;;;;;;;27.53;30.93;101855.09;4994856;28;20034;-82
2022/08/25 10:34:19;;;;;;;7.63;2.00;;;;;;;27.49;29.68;101855.09;5017846;28;20083;-80
2022/08/25 10:36:55;;;;;;;4.68;1.52;;;;;;;27.62;29.54;101844.25;5000345;28;20022;-78
2022/08/25 10:39:38;;;;;;;8.30;1.58;;;;;;;27.93;29.33;101842.59;5005047;28;20102;-79
2022/08/25 10:42:20;;;;;;;5.70;1.65;;;;;;;27.61;28.76;101851.09;5003533;28;20040;-75
2022/08/25 10:48:19;;;;;;;6.38;1.42;;;;;;;28.27;29.00;101839.28;5002389;28;20155;-78
2022/08/25 10:50:51;;;;;;;9.02;2.95;;;;;;;28.35;28.70;101840.88;5017389;28;20543;-75
2022/08/25 10:53:34;;;;;;;4.88;1.90;;;;;;;28.57;27.61;101836.75;4995220;28;20058;-76
2022/08/25 10:56:21;;;;;;;6.57;1.60;;;;;;;28.56;27.98;101839.94;4992856;28;20041;-77
2022/08/25 10:59:03;;;;;;;11.93;3.90;;;;;;;28.57;28.59;101831.13;4991808;28;20073;-76
2022/08/25 11:01:47;;;;;;;6.60;1.40;;;;;;;29.00;28.05;101828.81;4992842;28;20485;-77
2022/08/25 11:04:30;;;;;;;6.57;1.55;;;;;;;28.98;27.52;101824.81;4993345;28;20034;-79
2022/08/25 11:07:06;;;;;;;4.60;1.20;;;;;;;28.96;27.08;101828.06;4993442;28;20482;-76
2022/08/25 11:09:43;;;;;;;5.38;1.13;;;;;;;28.97;26.61;101826.84;4993430;28;20445;-80
2022/08/25 11:12:15;;;;;;;5.97;1.17;;;;;;;29.02;27.15;101828.44;4993063;28;20104;-77
2022/08/25 11:14:58;;;;;;;5.88;1.17;;;;;;;29.10;27.16;101824.34;4993069;28;20049;-77
2022/08/25 11:17:48;;;;;;;4.85;1.33;;;;;;;29.28;27.15;101824.97;4991380;28;20018;-77
2022/08/25 11:20:18;;;;;;;5.10;1.20;;;;;;;29.36;27.06;101824.91;4991283;28;20471;-76
2022/08/25 11:22:49;;;;;;;5.55;1.40;;;;;;;29.02;27.39;101817.16;4991430;28;20022;-77
2022/08/25 11:25:45;;;;;;;6.22;1.08;;;;;;;28.87;27.14;101827.69;4992136;28;20045;-79
2022/08/25 11:28:25;;;;;;;13.35;2.35;;;;;;;29.29;27.07;101820.94;4994071;28;20053;-76
2022/08/25 11:30:52;;;;;;;5.93;1.48;;;;;;;29.44;27.04;101817.97;5002382;28;20046;-90
2022/08/25 11:33:18;;;;;;;5.22;2.25;;;;;;;29.26;27.25;101818.16;5004529;28;20025;-87
2022/08/25 11:35:58;;;;;;;7.15;1.98;;;;;;;29.12;26.71;101821.91;5003458;28;20080;-81
2022/08/25 11:38:57;;;;;;;4.35;1.65;;;;;;;29.37;26.63;101818.06;5004854;28;20030;-90
2022/08/25 11:41:23;;;;;;;;;;;;;;;29.27;26.94;101820.56;5007594;28;20031;-77
2022/08/25 11:44:27;;;;;;;5.53;1.75;;;;;;;29.06;27.13;101817.91;5006846;28;19921;-84
2022/08/25 11:47:10;;;;;;;9.15;1.63;;;;;;;29.32;26.65;101808.03;4997332;28;20054;-83
2022/08/25 11:49:42;;;;;;;4.95;1.30;;;;;;;29.19;26.79;101810.59;4995872;28;20021;-78